createdAt,value
2023-05-17T00:01:11.388Z,3.03
2023-05-17T00:03:13.490Z,3.23
2023-05-17T00:05:15.915Z,2.83
2023-05-17T00:07:18.066Z,2.63
2023-05-17T00:09:20.164Z,2.77
2023-05-17T00:11:22.126Z,2.50
2023-05-17T00:13:24.341Z,2.60
2023-05-17T00:15:26.597Z,2.60
2023-05-17T00:17:28.975Z,3.10
2023-05-17T00:19:31.064Z,2.93
2023-05-17T00:21:33.095Z,3.20
2023-05-17T00:23:35.251Z,2.90
2023-05-17T00:25:37.496Z,2.77
2023-05-17T00:27:39.682Z,3.07
2023-05-17T00:29:41.741Z,2.83
2023-05-17T00:31:45.533Z,3.03
2023-05-17T00:33:47.699Z,2.60
2023-05-17T00:35:49.873Z,2.80
2023-05-17T00:37:52.453Z,3.50
2023-05-17T00:39:54.558Z,3.00
2023-05-17T00:41:59.980Z,2.87
2023-05-17T00:44:02.154Z,3.73
2023-05-17T00:46:04.149Z,3.43
2023-05-17T00:48:06.267Z,2.87
2023-05-17T00:50:08.876Z,3.50
2023-05-17T00:52:11.104Z,3.20
2023-05-17T00:54:14.672Z,3.70
2023-05-17T00:56:16.909Z,2.80
2023-05-17T00:58:19.119Z,3.57
2023-05-17T01:00:21.624Z,3.70
2023-05-17T01:02:23.929Z,3.73
2023-05-17T01:04:26.017Z,3.93
2023-05-17T01:06:28.102Z,3.60
2023-05-17T01:08:30.392Z,5.10
2023-05-17T01:10:38.802Z,3.70
2023-05-17T01:13:05.116Z,3.27
2023-05-17T01:15:18.248Z,3.27
2023-05-17T01:17:32.990Z,3.20
2023-05-17T01:19:58.714Z,2.90
2023-05-17T01:22:25.606Z,3.30
2023-05-17T01:24:56.899Z,5.30
2023-05-17T01:27:00.430Z,3.43
2023-05-17T01:29:02.755Z,3.47
2023-05-17T01:31:05.534Z,4.13
2023-05-17T01:33:07.897Z,4.27
2023-05-17T01:35:12.275Z,4.00
2023-05-17T01:37:14.572Z,4.00
2023-05-17T01:39:16.713Z,3.60
2023-05-17T01:41:35.787Z,4.63
2023-05-17T01:43:50.336Z,3.47
2023-05-17T01:46:15.508Z,4.03
2023-05-17T01:48:20.771Z,3.67
2023-05-17T01:50:25.302Z,4.30
2023-05-17T01:52:39.221Z,4.27
2023-05-17T01:54:48.628Z,4.10
2023-05-17T01:56:56.655Z,4.50
2023-05-17T01:58:59.655Z,4.33
2023-05-17T02:01:02.328Z,4.20
2023-05-17T02:03:04.491Z,4.20
2023-05-17T02:05:07.258Z,4.57
2023-05-17T02:07:09.498Z,4.10
2023-05-17T02:09:11.619Z,4.43
2023-05-17T02:11:14.385Z,4.70
2023-05-17T02:13:16.471Z,3.90
2023-05-17T02:15:19.422Z,4.70
2023-05-17T02:17:21.900Z,4.53
2023-05-17T02:19:24.864Z,4.50
2023-05-17T02:21:27.150Z,4.23
2023-05-17T02:23:29.194Z,4.63
2023-05-17T02:25:31.490Z,4.60
2023-05-17T02:27:34.502Z,5.57
2023-05-17T02:29:37.021Z,4.63
2023-05-17T02:31:39.032Z,4.77
2023-05-17T02:33:41.311Z,4.50
2023-05-17T02:35:43.394Z,4.23
2023-05-17T02:37:45.538Z,5.70
2023-05-17T02:39:47.987Z,4.43
2023-05-17T02:41:50.003Z,5.57
2023-05-17T02:43:52.259Z,5.67
2023-05-17T02:45:54.301Z,5.80
2023-05-17T02:47:56.295Z,5.13
2023-05-17T02:49:58.454Z,5.20
2023-05-17T02:52:00.957Z,5.30
2023-05-17T02:54:03.075Z,5.57
2023-05-17T02:56:05.415Z,5.10
2023-05-17T02:58:08.083Z,5.93
2023-05-17T03:00:10.660Z,5.13
2023-05-17T03:02:12.849Z,4.63
2023-05-17T03:04:14.969Z,5.10
2023-05-17T03:06:17.128Z,6.37
2023-05-17T03:08:19.287Z,5.40
2023-05-17T03:10:22.780Z,6.47
2023-05-17T03:12:24.888Z,5.70
2023-05-17T03:14:27.742Z,6.33
2023-05-17T03:16:29.956Z,6.30
2023-05-17T03:18:33.184Z,5.60
2023-05-17T03:20:35.646Z,5.70
2023-05-17T03:22:37.791Z,6.10
2023-05-17T03:24:39.894Z,6.10
2023-05-17T03:26:42.003Z,6.20
2023-05-17T03:28:46.159Z,7.77
2023-05-17T03:30:48.331Z,6.47
2023-05-17T03:32:50.924Z,7.03
2023-05-17T03:34:53.203Z,6.43
2023-05-17T03:36:55.679Z,5.83
2023-05-17T03:39:00.235Z,6.00
2023-05-17T03:41:03.307Z,6.07
2023-05-17T03:43:05.636Z,5.83
2023-05-17T03:45:08.305Z,6.70
2023-05-17T03:47:11.680Z,6.00
2023-05-17T03:49:14.018Z,5.53
2023-05-17T03:51:16.493Z,6.23
2023-05-17T03:53:19.397Z,5.90
2023-05-17T03:55:21.646Z,6.30
2023-05-17T03:57:24.374Z,6.50
2023-05-17T03:59:26.431Z,4.83
2023-05-17T04:01:28.577Z,6.23
2023-05-17T04:03:30.897Z,5.90
2023-05-17T04:05:33.613Z,6.27
2023-05-17T04:07:35.845Z,6.37
2023-05-17T04:09:38.013Z,6.10
2023-05-17T04:11:41.132Z,7.83
2023-05-17T04:13:43.283Z,5.50
2023-05-17T04:15:45.642Z,6.30
2023-05-17T04:17:48.000Z,7.23
2023-05-17T04:19:50.128Z,5.77
2023-05-17T04:21:52.299Z,6.07
2023-05-17T04:23:57.257Z,5.77
2023-05-17T04:25:59.927Z,7.03
2023-05-17T04:28:05.395Z,7.50
2023-05-17T04:30:08.193Z,6.77
2023-05-17T04:32:10.971Z,6.67
2023-05-17T04:34:14.719Z,6.23
2023-05-17T04:36:17.662Z,6.30
2023-05-17T04:38:20.141Z,4.97
2023-05-17T04:40:22.400Z,5.57
2023-05-17T04:42:26.336Z,5.90
2023-05-17T04:44:32.401Z,5.40
2023-05-17T04:46:36.072Z,5.23
2023-05-17T04:48:39.301Z,6.07
2023-05-17T04:50:46.367Z,5.20
2023-05-17T04:52:48.708Z,5.77
2023-05-17T04:54:52.035Z,5.17
2023-05-17T04:56:58.114Z,5.70
2023-05-17T04:59:20.125Z,5.70
2023-05-17T05:01:22.253Z,6.10
2023-05-17T05:03:26.565Z,5.37
2023-05-17T05:05:29.850Z,5.33
2023-05-17T05:07:32.849Z,5.10
2023-05-17T05:09:35.328Z,5.27
2023-05-17T05:11:37.784Z,5.20
2023-05-17T05:13:42.386Z,5.40
2023-05-17T05:15:45.055Z,5.70
2023-05-17T05:17:48.353Z,4.97
2023-05-17T05:19:50.594Z,5.10
2023-05-17T05:21:53.229Z,5.10
2023-05-17T05:23:55.389Z,5.70
2023-05-17T05:25:57.442Z,5.03
2023-05-17T05:27:59.477Z,5.03
2023-05-17T05:30:02.994Z,5.30
2023-05-17T05:32:07.385Z,4.80
2023-05-17T05:34:14.042Z,5.70
2023-05-17T05:36:16.779Z,5.40
2023-05-17T05:38:19.037Z,5.20
2023-05-17T05:40:21.428Z,5.13
2023-05-17T05:42:23.487Z,4.70
2023-05-17T05:44:26.030Z,5.17
2023-05-17T05:46:30.141Z,5.07
2023-05-17T05:48:33.427Z,4.33
2023-05-17T05:50:35.841Z,4.30
2023-05-17T05:52:43.332Z,4.70
2023-05-17T05:54:45.699Z,4.90
2023-05-17T05:56:47.960Z,4.67
2023-05-17T05:58:53.389Z,5.30
2023-05-17T06:00:55.782Z,4.53
2023-05-17T06:02:57.896Z,5.00
2023-05-17T06:05:00.126Z,5.47
2023-05-17T06:07:02.328Z,5.20
2023-05-17T06:09:07.032Z,6.30
2023-05-17T06:11:09.097Z,4.50
2023-05-17T06:13:11.194Z,4.90
2023-05-17T06:15:13.391Z,4.50
2023-05-17T06:17:15.538Z,4.33
2023-05-17T06:19:17.722Z,4.97
2023-05-17T06:21:19.829Z,4.80
2023-05-17T06:23:22.009Z,3.83
2023-05-17T06:25:24.043Z,3.87
2023-05-17T06:27:26.791Z,4.90
2023-05-17T06:29:28.793Z,4.63
2023-05-17T06:31:31.318Z,5.07
2023-05-17T06:33:33.417Z,4.33
2023-05-17T06:35:54.363Z,3.87
2023-05-17T06:37:58.031Z,4.50
2023-05-17T06:40:15.376Z,4.97
2023-05-17T06:42:18.591Z,4.70
2023-05-17T06:44:21.970Z,4.70
2023-05-17T06:46:24.098Z,3.93
2023-05-17T06:48:26.408Z,4.30
2023-05-17T06:50:29.257Z,4.30
2023-05-17T06:52:31.480Z,4.07
2023-05-17T06:54:33.516Z,4.50
2023-05-17T06:56:35.575Z,3.93
2023-05-17T06:58:37.783Z,3.90
2023-05-17T07:00:39.855Z,3.63
2023-05-17T07:02:42.236Z,3.57
2023-05-17T07:04:44.618Z,3.60
2023-05-17T07:06:47.105Z,3.70
2023-05-17T07:08:49.214Z,3.40
2023-05-17T07:10:52.517Z,3.57
2023-05-17T07:12:54.673Z,3.03
2023-05-17T07:14:56.913Z,3.23
2023-05-17T07:17:00.079Z,3.80
2023-05-17T07:19:02.247Z,4.37
2023-05-17T07:21:04.536Z,4.80
2023-05-17T07:23:07.814Z,3.20
2023-05-17T07:25:10.482Z,3.23
2023-05-17T07:27:12.980Z,3.37
2023-05-17T07:29:15.124Z,3.03
2023-05-17T07:31:17.498Z,3.03
2023-05-17T07:33:22.077Z,2.67
2023-05-17T07:35:24.339Z,3.20
2023-05-17T07:37:26.316Z,3.37
2023-05-17T07:39:28.807Z,2.80
2023-05-17T07:41:31.809Z,2.97
2023-05-17T07:43:33.827Z,2.70
2023-05-17T07:45:36.072Z,3.30
2023-05-17T07:47:39.444Z,2.53
2023-05-17T07:49:42.177Z,3.97
2023-05-17T07:51:44.232Z,3.70
2023-05-17T07:53:47.535Z,3.33
2023-05-17T07:55:49.855Z,2.80
2023-05-17T07:57:52.569Z,3.50
2023-05-17T07:59:54.606Z,2.87
2023-05-17T08:01:57.014Z,2.70
2023-05-17T08:03:59.136Z,2.70
2023-05-17T08:06:01.386Z,3.33
2023-05-17T08:08:03.567Z,2.90
2023-05-17T08:10:06.322Z,3.13
2023-05-17T08:12:08.356Z,3.10
2023-05-17T08:14:10.475Z,3.10
2023-05-17T08:16:14.509Z,3.80
2023-05-17T08:18:17.085Z,2.93
2023-05-17T08:20:19.304Z,2.70
2023-05-17T08:22:21.588Z,3.40
2023-05-17T08:24:23.602Z,3.33
2023-05-17T08:26:25.665Z,3.13
2023-05-17T08:28:28.518Z,3.23
2023-05-17T08:30:30.596Z,3.13
2023-05-17T08:32:32.705Z,3.03
2023-05-17T08:34:34.766Z,2.87
2023-05-17T08:36:36.926Z,3.00
2023-05-17T08:38:39.022Z,3.33
2023-05-17T08:40:41.379Z,2.83
2023-05-17T08:42:43.491Z,2.70
2023-05-17T08:44:45.618Z,2.97
2023-05-17T08:46:53.681Z,2.90
2023-05-17T08:49:00.103Z,3.17
2023-05-17T08:51:03.860Z,2.70
2023-05-17T08:53:06.190Z,2.27
2023-05-17T08:55:09.115Z,3.50
2023-05-17T08:57:11.980Z,3.10
2023-05-17T08:59:14.335Z,2.57
2023-05-17T09:01:17.982Z,3.57
2023-05-17T09:03:22.491Z,3.13
2023-05-17T09:05:25.597Z,3.10
2023-05-17T09:07:27.682Z,3.10
2023-05-17T09:09:29.746Z,3.50
2023-05-17T09:11:35.388Z,2.90
2023-05-17T09:13:37.748Z,3.30
2023-05-17T09:15:43.042Z,3.40
2023-05-17T09:17:57.034Z,3.30
2023-05-17T09:20:00.745Z,3.10
2023-05-17T09:22:04.806Z,3.60
2023-05-17T09:24:08.617Z,2.50
2023-05-17T09:26:11.539Z,3.83
2023-05-17T09:28:13.830Z,3.17
2023-05-17T09:30:18.862Z,3.00
2023-05-17T09:32:21.229Z,2.93
2023-05-17T09:34:25.397Z,3.43
2023-05-17T09:36:27.674Z,3.50
2023-05-17T09:38:30.065Z,3.37
2023-05-17T09:40:32.389Z,2.27
2023-05-17T09:42:37.346Z,2.70
2023-05-17T09:45:09.180Z,2.53
2023-05-17T09:47:11.651Z,3.40
2023-05-17T09:49:14.203Z,3.40
2023-05-17T09:51:16.428Z,2.67
2023-05-17T09:53:29.708Z,2.27
2023-05-17T09:55:32.446Z,2.30
2023-05-17T09:57:39.322Z,2.73
2023-05-17T09:59:42.083Z,2.60
2023-05-17T10:01:45.739Z,2.53
2023-05-17T10:03:51.482Z,2.37
2023-05-17T10:05:54.193Z,2.40
2023-05-17T10:07:56.561Z,2.80
2023-05-17T10:09:59.559Z,3.03
2023-05-17T10:12:03.289Z,2.83
2023-05-17T10:14:12.250Z,2.33
2023-05-17T10:16:15.400Z,2.10
2023-05-17T10:18:17.821Z,2.57
2023-05-17T10:20:21.544Z,3.13
2023-05-17T10:22:24.163Z,2.10
2023-05-17T10:24:27.253Z,2.40
2023-05-17T10:26:30.169Z,2.60
2023-05-17T10:28:33.307Z,3.37
2023-05-17T10:30:36.075Z,2.00
2023-05-17T10:32:38.593Z,2.60
2023-05-17T10:34:41.293Z,2.57
2023-05-17T10:36:47.124Z,2.47
2023-05-17T10:38:49.508Z,2.60
2023-05-17T10:40:53.340Z,2.47
2023-05-17T10:42:56.615Z,3.13
2023-05-17T10:45:01.395Z,2.50
2023-05-17T10:47:04.158Z,2.87
2023-05-17T10:49:07.175Z,2.87
2023-05-17T10:51:11.229Z,2.70
2023-05-17T10:53:13.508Z,2.80
2023-05-17T10:55:23.110Z,2.37
2023-05-17T10:57:49.988Z,2.20
2023-05-17T11:00:00.780Z,2.37
2023-05-17T11:02:05.358Z,2.40
2023-05-17T11:04:34.353Z,2.47
2023-05-17T11:06:36.729Z,2.60
2023-05-17T11:08:47.562Z,2.97
2023-05-17T11:11:14.031Z,2.50
2023-05-17T11:13:25.719Z,3.10
2023-05-17T11:15:28.258Z,2.50
2023-05-17T11:17:43.416Z,2.13
2023-05-17T11:19:58.588Z,3.40
2023-05-17T11:22:11.958Z,2.60
2023-05-17T11:24:17.057Z,2.10
2023-05-17T11:26:28.224Z,3.20
2023-05-17T11:28:35.613Z,2.43
2023-05-17T11:30:42.591Z,2.43
2023-05-17T11:32:50.217Z,2.43
2023-05-17T11:34:52.860Z,3.27
2023-05-17T11:36:55.800Z,2.60
2023-05-17T11:39:12.478Z,3.00
2023-05-17T11:41:27.030Z,2.50
2023-05-17T11:43:31.194Z,3.07
2023-05-17T11:45:43.327Z,2.70
2023-05-17T11:47:48.672Z,2.83
2023-05-17T11:49:54.319Z,3.00
2023-05-17T11:51:57.962Z,2.57
2023-05-17T11:54:03.604Z,2.50
2023-05-17T11:56:06.696Z,2.93
2023-05-17T11:58:10.150Z,2.27
2023-05-17T12:00:13.665Z,2.87
2023-05-17T12:02:30.463Z,2.43
2023-05-17T12:04:38.138Z,2.37
2023-05-17T12:06:40.836Z,2.73
2023-05-17T12:08:46.909Z,3.70
2023-05-17T12:10:51.811Z,2.43
2023-05-17T12:12:54.212Z,2.73
2023-05-17T12:14:58.763Z,2.57
2023-05-17T12:17:02.776Z,2.37
2023-05-17T12:19:05.147Z,3.27
2023-05-17T12:21:08.799Z,2.67
2023-05-17T12:23:11.058Z,2.47
2023-05-17T12:25:20.313Z,2.90
2023-05-17T12:27:27.154Z,2.50
2023-05-17T12:29:29.828Z,3.00
2023-05-17T12:31:36.852Z,2.50
2023-05-17T12:33:42.145Z,3.17
2023-05-17T12:35:44.957Z,3.20
2023-05-17T12:37:47.425Z,3.13
2023-05-17T12:39:49.634Z,2.30
2023-05-17T12:41:52.584Z,2.27
2023-05-17T12:44:06.173Z,2.63
2023-05-17T12:46:20.464Z,2.63
2023-05-17T12:48:26.819Z,2.50
2023-05-17T12:50:30.803Z,2.10
2023-05-17T12:52:35.218Z,2.00
2023-05-17T12:54:39.852Z,2.57
2023-05-17T12:56:46.565Z,2.70
2023-05-17T12:59:10.486Z,2.70
2023-05-17T13:01:14.688Z,2.33
2023-05-17T13:03:17.738Z,2.67
2023-05-17T13:05:23.237Z,3.17
2023-05-17T13:07:25.839Z,2.50
2023-05-17T13:09:31.037Z,2.37
2023-05-17T13:11:41.501Z,4.20
2023-05-17T13:13:48.832Z,2.50
2023-05-17T13:16:01.160Z,2.77
2023-05-17T13:18:13.913Z,2.83
2023-05-17T13:20:16.802Z,3.00
2023-05-17T13:22:19.192Z,2.70
2023-05-17T13:24:21.516Z,2.80
2023-05-17T13:26:23.772Z,2.30
2023-05-17T13:28:26.424Z,3.20
2023-05-17T13:30:28.814Z,2.57
2023-05-17T13:32:31.697Z,2.40
2023-05-17T13:34:33.972Z,2.53
2023-05-17T13:36:36.203Z,2.40
2023-05-17T13:38:38.432Z,2.63
2023-05-17T13:40:41.113Z,2.40
2023-05-17T13:42:43.333Z,2.40
2023-05-17T13:44:45.596Z,2.57
2023-05-17T13:46:47.965Z,2.23
2023-05-17T13:48:50.501Z,2.83
2023-05-17T13:50:53.072Z,2.70
2023-05-17T13:52:55.408Z,2.13
2023-05-17T13:54:57.840Z,2.40
2023-05-17T13:57:00.041Z,2.50
2023-05-17T13:59:02.394Z,2.30
2023-05-17T14:01:04.745Z,2.70
2023-05-17T14:03:07.201Z,2.60
2023-05-17T14:05:10.090Z,2.63
2023-05-17T14:07:12.662Z,3.60
2023-05-17T14:09:15.005Z,2.93
2023-05-17T14:11:17.326Z,2.37
2023-05-17T14:13:19.632Z,2.60
2023-05-17T14:15:21.988Z,2.40
2023-05-17T14:17:24.234Z,3.13
2023-05-17T14:19:26.632Z,2.83
2023-05-17T14:21:28.951Z,2.80
2023-05-17T14:23:31.222Z,2.63
2023-05-17T14:25:33.442Z,3.30
2023-05-17T14:27:35.766Z,3.07
2023-05-17T14:29:38.138Z,2.77
2023-05-17T14:31:40.387Z,2.90
2023-05-17T14:33:42.571Z,2.40
2023-05-17T14:35:44.816Z,2.57
2023-05-17T14:37:47.390Z,2.33
2023-05-17T14:40:05.265Z,2.17
2023-05-17T14:42:08.407Z,2.77
2023-05-17T14:44:10.672Z,3.03
2023-05-17T14:46:13.026Z,2.70
2023-05-17T14:48:16.242Z,3.00
2023-05-17T14:50:18.608Z,2.83
2023-05-17T14:52:20.915Z,2.60
2023-05-17T14:54:23.359Z,2.93
2023-05-17T14:56:25.906Z,3.30
2023-05-17T14:58:28.193Z,2.90
2023-05-17T15:00:30.492Z,3.30
2023-05-17T15:02:33.192Z,4.57
2023-05-17T15:04:35.525Z,5.00
2023-05-17T15:06:38.741Z,5.10
2023-05-17T15:08:41.002Z,4.13
2023-05-17T15:10:43.485Z,3.97
2023-05-17T15:12:45.800Z,4.30
2023-05-17T15:14:48.555Z,4.30
2023-05-17T15:16:52.324Z,4.53
2023-05-17T15:18:57.334Z,5.00
2023-05-17T15:21:00.058Z,5.47
2023-05-17T15:23:02.306Z,5.50
2023-05-17T15:25:06.070Z,4.70
2023-05-17T15:27:08.305Z,4.73
2023-05-17T15:29:10.756Z,5.87
2023-05-17T15:31:13.131Z,5.80
2023-05-17T15:33:15.780Z,6.27
2023-05-17T15:35:18.186Z,8.67
2023-05-17T15:37:20.465Z,8.80
2023-05-17T15:39:22.673Z,9.13
2023-05-17T15:41:29.706Z,9.40
2023-05-17T15:43:33.732Z,11.87
2023-05-17T15:45:35.945Z,10.40
2023-05-17T15:47:43.593Z,11.70
2023-05-17T15:49:46.371Z,12.13
2023-05-17T15:51:48.592Z,13.83
2023-05-17T15:53:50.898Z,13.77
2023-05-17T15:55:53.199Z,11.07
2023-05-17T15:57:55.426Z,10.50
2023-05-17T15:59:57.610Z,12.70
2023-05-17T16:01:59.830Z,12.43
2023-05-17T16:04:02.167Z,11.20
2023-05-17T16:06:05.102Z,13.23
2023-05-17T16:08:08.410Z,12.50
2023-05-17T16:10:10.869Z,13.50
2023-05-17T16:12:13.061Z,10.43
2023-05-17T16:14:15.265Z,9.90
2023-05-17T16:16:17.495Z,8.30
2023-05-17T16:18:19.748Z,10.33
2023-05-17T16:20:22.414Z,8.57
2023-05-17T16:22:24.776Z,7.23
2023-05-17T16:24:27.928Z,7.30
2023-05-17T16:26:30.409Z,7.53
2023-05-17T16:28:34.646Z,6.63
2023-05-17T16:30:37.574Z,6.87
2023-05-17T16:32:39.967Z,8.07
2023-05-17T16:34:42.145Z,8.60
2023-05-17T16:36:47.413Z,9.47
2023-05-17T16:38:50.019Z,8.97
2023-05-17T16:40:52.319Z,8.37
2023-05-17T16:42:54.504Z,7.50
2023-05-17T16:44:57.190Z,4.90
2023-05-17T16:47:00.158Z,4.17
2023-05-17T16:49:02.523Z,3.63
2023-05-17T16:51:04.973Z,3.53
2023-05-17T16:53:07.315Z,3.33
2023-05-17T16:55:10.418Z,3.33
2023-05-17T16:57:12.935Z,2.67
2023-05-17T16:59:18.329Z,3.00
2023-05-17T17:01:21.200Z,2.80
2023-05-17T17:03:23.560Z,3.60
2023-05-17T17:05:28.416Z,2.20
2023-05-17T17:07:30.720Z,2.33
2023-05-17T17:09:32.970Z,2.30
2023-05-17T17:11:35.199Z,3.00
2023-05-17T17:13:37.517Z,2.77
2023-05-17T17:15:39.750Z,2.17
2023-05-17T17:17:42.708Z,2.37
2023-05-17T17:19:45.090Z,2.20
2023-05-17T17:21:47.572Z,2.80
2023-05-17T17:23:51.017Z,2.50
2023-05-17T17:25:53.874Z,2.20
2023-05-17T17:27:56.119Z,2.67
2023-05-17T17:29:58.358Z,2.90
2023-05-17T17:32:00.833Z,3.40
2023-05-17T17:34:03.152Z,2.53
2023-05-17T17:36:05.961Z,2.90
2023-05-17T17:38:09.006Z,2.10
2023-05-17T17:40:12.774Z,2.30
2023-05-17T17:42:15.088Z,3.00
2023-05-17T17:44:17.343Z,2.97
2023-05-17T17:46:19.654Z,2.33
2023-05-17T17:48:21.880Z,2.60
2023-05-17T17:50:24.131Z,3.10
2023-05-17T17:52:26.432Z,2.40
2023-05-17T17:54:29.186Z,2.40
2023-05-17T17:56:32.824Z,2.00
2023-05-17T17:58:35.051Z,2.03
2023-05-17T18:00:37.295Z,2.63
2023-05-17T18:02:39.953Z,2.83
2023-05-17T18:04:42.453Z,2.50
2023-05-17T18:06:45.914Z,2.50
2023-05-17T18:08:48.156Z,2.20
2023-05-17T18:10:50.349Z,2.07
2023-05-17T18:12:52.517Z,2.33
2023-05-17T18:14:55.157Z,2.43
2023-05-17T18:16:57.574Z,2.80
2023-05-17T18:19:00.859Z,2.10
2023-05-17T18:21:03.248Z,2.60
2023-05-17T18:23:05.567Z,3.13
2023-05-17T18:25:08.175Z,2.70
2023-05-17T18:27:15.050Z,3.20
2023-05-17T18:29:17.269Z,2.57
2023-05-17T18:31:19.519Z,2.47
2023-05-17T18:33:21.744Z,2.57
2023-05-17T18:35:23.914Z,2.90
2023-05-17T18:37:26.183Z,2.03
2023-05-17T18:39:28.420Z,2.97
2023-05-17T18:41:31.008Z,2.63
2023-05-17T18:43:33.435Z,2.77
2023-05-17T18:45:36.530Z,7.27
2023-05-17T18:47:38.748Z,3.00
2023-05-17T18:49:45.138Z,2.73
2023-05-17T18:51:47.727Z,2.37
2023-05-17T18:53:49.956Z,2.77
2023-05-17T18:55:52.165Z,3.00
2023-05-17T18:57:54.447Z,3.50
2023-05-17T18:59:56.727Z,2.73
2023-05-17T19:01:58.926Z,3.90
2023-05-17T19:04:01.246Z,3.30
2023-05-17T19:06:03.614Z,2.70
2023-05-17T19:08:05.979Z,2.90
2023-05-17T19:10:08.639Z,3.23
2023-05-17T19:12:10.952Z,3.43
2023-05-17T19:14:14.690Z,3.17
2023-05-17T19:16:17.121Z,3.10
2023-05-17T19:18:19.377Z,3.53
2023-05-17T19:20:21.651Z,3.07
2023-05-17T19:22:24.211Z,4.40
2023-05-17T19:24:26.505Z,3.53
2023-05-17T19:26:29.153Z,3.83
2023-05-17T19:28:35.830Z,2.87
2023-05-17T19:30:38.030Z,2.80
2023-05-17T19:32:40.452Z,3.80
2023-05-17T19:34:42.875Z,3.33
2023-05-17T19:36:45.115Z,3.67
2023-05-17T19:38:47.758Z,3.40
2023-05-17T19:40:51.029Z,2.63
2023-05-17T19:42:53.230Z,3.57
2023-05-17T19:44:55.414Z,2.53
2023-05-17T19:46:57.637Z,3.00
2023-05-17T19:48:59.875Z,3.40
2023-05-17T19:51:03.355Z,3.13
2023-05-17T19:53:05.669Z,3.13
2023-05-17T19:55:07.991Z,3.23
2023-05-17T19:57:11.035Z,4.23
2023-05-17T19:59:13.292Z,3.00
2023-05-17T20:01:15.656Z,2.60
2023-05-17T20:03:17.919Z,3.23
2023-05-17T20:05:20.302Z,3.33
2023-05-17T20:07:25.796Z,2.63
2023-05-17T20:09:30.362Z,3.00
2023-05-17T20:11:32.850Z,3.17
2023-05-17T20:13:40.010Z,2.90
2023-05-17T20:15:42.316Z,3.40
2023-05-17T20:17:44.603Z,3.17
2023-05-17T20:19:47.150Z,3.43
2023-05-17T20:21:49.369Z,3.20
2023-05-17T20:23:56.461Z,2.97
2023-05-17T20:25:58.804Z,3.23
2023-05-17T20:28:01.398Z,2.77
2023-05-17T20:30:05.586Z,2.80
2023-05-17T20:32:08.695Z,2.60
2023-05-17T20:34:11.009Z,2.80
2023-05-17T20:36:14.622Z,3.23
2023-05-17T20:38:16.991Z,2.87
2023-05-17T20:40:19.720Z,3.27
2023-05-17T20:42:22.439Z,2.53
2023-05-17T20:44:25.882Z,2.37
2023-05-17T20:46:31.758Z,3.70
2023-05-17T20:48:34.415Z,3.07
2023-05-17T20:50:37.090Z,2.90
2023-05-17T20:52:40.072Z,3.30
2023-05-17T20:54:42.361Z,3.07
2023-05-17T20:56:44.665Z,3.10
2023-05-17T20:58:47.708Z,3.00
2023-05-17T21:00:50.197Z,2.60
2023-05-17T21:02:52.472Z,2.60
2023-05-17T21:04:54.804Z,3.07
2023-05-17T21:06:58.195Z,2.30
2023-05-17T21:09:02.633Z,2.33
2023-05-17T21:11:05.068Z,2.93
2023-05-17T21:13:09.301Z,3.10
2023-05-17T21:15:30.702Z,3.43
2023-05-17T21:17:33.252Z,2.70
2023-05-17T21:19:35.521Z,3.10
2023-05-17T21:21:37.926Z,2.40
2023-05-17T21:23:40.202Z,3.27
2023-05-17T21:25:42.544Z,2.67
2023-05-17T21:27:44.714Z,3.07
2023-05-17T21:29:46.953Z,3.07
2023-05-17T21:31:49.269Z,3.33
2023-05-17T21:33:51.750Z,3.40
2023-05-17T21:35:53.968Z,2.73
2023-05-17T21:37:56.208Z,3.27
2023-05-17T21:39:58.354Z,2.83
2023-05-17T21:42:00.934Z,2.60
2023-05-17T21:44:03.324Z,2.87
2023-05-17T21:46:05.695Z,3.07
2023-05-17T21:48:08.210Z,2.87
2023-05-17T21:50:10.986Z,2.93
2023-05-17T21:52:13.214Z,2.53
2023-05-17T21:54:15.486Z,3.03
2023-05-17T21:56:17.771Z,2.73
2023-05-17T21:58:21.340Z,2.77
2023-05-17T22:00:24.883Z,3.40
2023-05-17T22:02:27.122Z,2.50
2023-05-17T22:04:29.491Z,2.77
2023-05-17T22:06:31.626Z,3.07
2023-05-17T22:08:33.823Z,3.10
2023-05-17T22:10:36.056Z,3.53
2023-05-17T22:12:38.618Z,3.20
2023-05-17T22:14:43.420Z,3.03
2023-05-17T22:16:45.603Z,3.00
2023-05-17T22:18:47.978Z,2.50
2023-05-17T22:20:53.289Z,2.70
2023-05-17T22:22:55.528Z,3.20
2023-05-17T22:24:57.711Z,3.50
2023-05-17T22:26:59.869Z,3.07
2023-05-17T22:29:02.059Z,2.80
2023-05-17T22:31:07.535Z,2.63
2023-05-17T22:33:09.786Z,2.70
2023-05-17T22:35:12.020Z,3.23
2023-05-17T22:37:14.017Z,2.70
2023-05-17T22:39:16.709Z,3.70
2023-05-17T22:41:18.750Z,2.43
2023-05-17T22:43:25.941Z,2.93
2023-05-17T22:45:32.821Z,3.10
2023-05-17T22:47:35.847Z,3.03
2023-05-17T22:49:38.063Z,2.70
2023-05-17T22:51:40.375Z,2.97
2023-05-17T22:53:42.584Z,2.40
2023-05-17T22:55:48.740Z,3.10
2023-05-17T22:57:51.326Z,2.83
2023-05-17T22:59:53.424Z,3.20
2023-05-17T23:01:55.633Z,2.93
2023-05-17T23:03:57.822Z,3.00
2023-05-17T23:06:03.232Z,2.90
2023-05-17T23:08:07.917Z,3.40
2023-05-17T23:10:10.883Z,3.20
2023-05-17T23:12:14.071Z,3.40
2023-05-17T23:14:17.476Z,3.63
2023-05-17T23:16:19.561Z,3.60
2023-05-17T23:18:21.621Z,3.80
2023-05-17T23:20:25.935Z,4.03
2023-05-17T23:22:31.550Z,2.80
2023-05-17T23:24:38.445Z,4.33
2023-05-17T23:26:41.461Z,3.30
2023-05-17T23:28:44.041Z,3.50
2023-05-17T23:30:48.554Z,3.23
2023-05-17T23:32:52.264Z,3.50
2023-05-17T23:35:06.268Z,4.47
2023-05-17T23:37:09.272Z,3.30
2023-05-17T23:39:11.396Z,3.33
2023-05-17T23:41:18.125Z,3.80
2023-05-17T23:43:20.266Z,3.70
2023-05-17T23:45:22.417Z,3.40
2023-05-17T23:47:24.836Z,3.60
2023-05-17T23:49:27.452Z,3.57
2023-05-17T23:51:29.509Z,4.03
2023-05-17T23:53:31.526Z,3.80
2023-05-17T23:55:33.619Z,3.83
2023-05-17T23:57:35.658Z,5.37
2023-05-17T23:59:37.992Z,3.60
